sensor_id;sensor_type;location;lat;lon;timestamp;P1;durP1;ratioP1;P2;durP2;ratioP2
24843;SDS011;12921;51.392;12.240;2023-07-02T00:02:20;0.10;;;0.10;;
24843;SDS011;12921;51.392;12.240;2023-07-02T00:04:46;0.17;;;0.17;;
24843;SDS011;12921;51.392;12.240;2023-07-02T00:07:12;0.10;;;0.10;;
24843;SDS011;12921;51.392;12.240;2023-07-02T00:09:39;0.10;;;0.10;;
24843;SDS011;12921;51.392;12.240;2023-07-02T00:12:06;0.10;;;0.10;;
24843;SDS011;12921;51.392;12.240;2023-07-02T00:14:32;0.10;;;0.10;;
24843;SDS011;12921;51.392;12.240;2023-07-02T00:16:58;0.60;;;0.40;;
24843;SDS011;12921;51.392;12.240;2023-07-02T00:19:24;0.20;;;0.20;;
24843;SDS011;12921;51.392;12.240;2023-07-02T00:21:50;0.70;;;0.38;;
24843;SDS011;12921;51.392;12.240;2023-07-02T00:24:18;0.68;;;0.55;;
24843;SDS011;12921;51.392;12.240;2023-07-02T00:26:44;0.60;;;0.60;;
24843;SDS011;12921;51.392;12.240;2023-07-02T00:29:10;0.10;;;0.10;;
24843;SDS011;12921;51.392;12.240;2023-07-02T00:31:36;0.45;;;0.45;;
24843;SDS011;12921;51.392;12.240;2023-07-02T00:34:03;0.25;;;0.25;;
24843;SDS011;12921;51.392;12.240;2023-07-02T00:36:29;0.30;;;0.30;;
24843;SDS011;12921;51.392;12.240;2023-07-02T00:38:55;0.10;;;0.10;;
24843;SDS011;12921;51.392;12.240;2023-07-02T00:41:22;0.10;;;0.10;;
24843;SDS011;12921;51.392;12.240;2023-07-02T00:43:48;0.10;;;0.10;;
24843;SDS011;12921;51.392;12.240;2023-07-02T00:46:15;0.10;;;0.10;;
24843;SDS011;12921;51.392;12.240;2023-07-02T00:48:49;0.10;;;0.10;;
24843;SDS011;12921;51.392;12.240;2023-07-02T00:51:22;0.10;;;0.10;;
24843;SDS011;12921;51.392;12.240;2023-07-02T00:53:49;0.60;;;0.60;;
24843;SDS011;12921;51.392;12.240;2023-07-02T00:56:15;0.10;;;0.10;;
24843;SDS011;12921;51.392;12.240;2023-07-02T00:58:42;0.25;;;0.25;;
24843;SDS011;12921;51.392;12.240;2023-07-02T01:01:20;0.10;;;0.10;;
24843;SDS011;12921;51.392;12.240;2023-07-02T01:03:56;0.20;;;0.20;;
24843;SDS011;12921;51.392;12.240;2023-07-02T01:06:24;0.10;;;0.10;;
24843;SDS011;12921;51.392;12.240;2023-07-02T01:08:54;0.30;;;0.30;;
24843;SDS011;12921;51.392;12.240;2023-07-02T01:11:21;0.15;;;0.15;;
24843;SDS011;12921;51.392;12.240;2023-07-02T01:13:48;0.32;;;0.32;;
24843;SDS011;12921;51.392;12.240;2023-07-02T01:16:14;0.40;;;0.40;;
24843;SDS011;12921;51.392;12.240;2023-07-02T01:18:40;0.10;;;0.10;;
24843;SDS011;12921;51.392;12.240;2023-07-02T01:21:06;0.20;;;0.20;;
24843;SDS011;12921;51.392;12.240;2023-07-02T01:23:32;0.17;;;0.17;;
24843;SDS011;12921;51.392;12.240;2023-07-02T01:25:59;0.10;;;0.10;;
24843;SDS011;12921;51.392;12.240;2023-07-02T01:28:33;0.68;;;0.68;;
24843;SDS011;12921;51.392;12.240;2023-07-02T01:31:00;0.10;;;0.10;;
24843;SDS011;12921;51.392;12.240;2023-07-02T01:33:26;0.63;;;0.63;;
24843;SDS011;12921;51.392;12.240;2023-07-02T01:35:52;0.00;;;0.00;;
24843;SDS011;12921;51.392;12.240;2023-07-02T01:38:18;0.30;;;0.30;;
24843;SDS011;12921;51.392;12.240;2023-07-02T01:40:44;0.10;;;0.10;;
24843;SDS011;12921;51.392;12.240;2023-07-02T01:43:10;0.55;;;0.43;;
24843;SDS011;12921;51.392;12.240;2023-07-02T01:45:37;0.10;;;0.10;;
24843;SDS011;12921;51.392;12.240;2023-07-02T01:48:03;0.25;;;0.13;;
24843;SDS011;12921;51.392;12.240;2023-07-02T01:50:29;0.10;;;0.10;;
24843;SDS011;12921;51.392;12.240;2023-07-02T01:52:55;0.10;;;0.10;;
24843;SDS011;12921;51.392;12.240;2023-07-02T01:55:21;0.20;;;0.20;;
24843;SDS011;12921;51.392;12.240;2023-07-02T01:57:47;0.20;;;0.20;;
24843;SDS011;12921;51.392;12.240;2023-07-02T02:00:13;0.32;;;0.32;;
24843;SDS011;12921;51.392;12.240;2023-07-02T02:02:40;0.25;;;0.25;;
24843;SDS011;12921;51.392;12.240;2023-07-02T02:05:06;0.20;;;0.20;;
24843;SDS011;12921;51.392;12.240;2023-07-02T02:07:33;0.25;;;0.25;;
24843;SDS011;12921;51.392;12.240;2023-07-02T02:10:01;0.68;;;0.68;;
24843;SDS011;12921;51.392;12.240;2023-07-02T02:12:27;0.10;;;0.10;;
24843;SDS011;12921;51.392;12.240;2023-07-02T02:14:53;0.10;;;0.10;;
24843;SDS011;12921;51.392;12.240;2023-07-02T02:17:19;0.20;;;0.20;;
24843;SDS011;12921;51.392;12.240;2023-07-02T02:19:45;0.10;;;0.10;;
24843;SDS011;12921;51.392;12.240;2023-07-02T02:22:11;0.10;;;0.10;;
24843;SDS011;12921;51.392;12.240;2023-07-02T02:24:37;0.50;;;0.50;;
24843;SDS011;12921;51.392;12.240;2023-07-02T02:27:03;1.45;;;0.70;;
24843;SDS011;12921;51.392;12.240;2023-07-02T02:29:29;0.40;;;0.40;;
24843;SDS011;12921;51.392;12.240;2023-07-02T02:31:55;1.35;;;0.85;;
24843;SDS011;12921;51.392;12.240;2023-07-02T02:34:21;0.08;;;0.08;;
24843;SDS011;12921;51.392;12.240;2023-07-02T02:36:47;0.10;;;0.10;;
24843;SDS011;12921;51.392;12.240;2023-07-02T02:39:14;0.40;;;0.40;;
24843;SDS011;12921;51.392;12.240;2023-07-02T02:41:40;0.20;;;0.20;;
24843;SDS011;12921;51.392;12.240;2023-07-02T02:44:06;0.45;;;0.32;;
24843;SDS011;12921;51.392;12.240;2023-07-02T02:46:32;0.00;;;0.00;;
24843;SDS011;12921;51.392;12.240;2023-07-02T02:48:58;0.10;;;0.10;;
24843;SDS011;12921;51.392;12.240;2023-07-02T02:51:24;0.43;;;0.43;;
24843;SDS011;12921;51.392;12.240;2023-07-02T02:53:50;0.10;;;0.10;;
24843;SDS011;12921;51.392;12.240;2023-07-02T02:56:16;0.10;;;0.10;;
24843;SDS011;12921;51.392;12.240;2023-07-02T02:58:43;0.40;;;0.40;;
24843;SDS011;12921;51.392;12.240;2023-07-02T03:01:09;0.50;;;0.50;;
24843;SDS011;12921;51.392;12.240;2023-07-02T03:03:37;0.35;;;0.35;;
24843;SDS011;12921;51.392;12.240;2023-07-02T03:06:03;0.98;;;0.98;;
24843;SDS011;12921;51.392;12.240;2023-07-02T03:08:29;0.47;;;0.47;;
24843;SDS011;12921;51.392;12.240;2023-07-02T03:10:56;0.17;;;0.17;;
24843;SDS011;12921;51.392;12.240;2023-07-02T03:13:22;2.20;;;1.10;;
24843;SDS011;12921;51.392;12.240;2023-07-02T03:15:48;0.50;;;0.50;;
24843;SDS011;12921;51.392;12.240;2023-07-02T03:18:14;0.20;;;0.20;;
24843;SDS011;12921;51.392;12.240;2023-07-02T03:20:40;1.75;;;0.95;;
24843;SDS011;12921;51.392;12.240;2023-07-02T03:23:06;0.35;;;0.35;;
24843;SDS011;12921;51.392;12.240;2023-07-02T03:25:33;1.00;;;0.90;;
24843;SDS011;12921;51.392;12.240;2023-07-02T03:27:59;0.10;;;0.10;;
24843;SDS011;12921;51.392;12.240;2023-07-02T03:30:25;0.40;;;0.40;;
24843;SDS011;12921;51.392;12.240;2023-07-02T03:32:51;0.10;;;0.10;;
24843;SDS011;12921;51.392;12.240;2023-07-02T03:35:17;0.30;;;0.30;;
24843;SDS011;12921;51.392;12.240;2023-07-02T03:37:43;1.00;;;0.95;;
24843;SDS011;12921;51.392;12.240;2023-07-02T03:40:09;0.10;;;0.10;;
24843;SDS011;12921;51.392;12.240;2023-07-02T03:42:35;0.25;;;0.25;;
24843;SDS011;12921;51.392;12.240;2023-07-02T03:45:01;2.03;;;1.58;;
24843;SDS011;12921;51.392;12.240;2023-07-02T03:47:28;0.10;;;0.10;;
24843;SDS011;12921;51.392;12.240;2023-07-02T03:49:54;0.10;;;0.10;;
24843;SDS011;12921;51.392;12.240;2023-07-02T03:52:20;0.70;;;0.60;;
24843;SDS011;12921;51.392;12.240;2023-07-02T03:54:46;0.98;;;0.90;;
24843;SDS011;12921;51.392;12.240;2023-07-02T03:57:12;0.10;;;0.10;;
24843;SDS011;12921;51.392;12.240;2023-07-02T03:59:38;0.10;;;0.10;;
24843;SDS011;12921;51.392;12.240;2023-07-02T04:02:04;0.10;;;0.10;;
24843;SDS011;12921;51.392;12.240;2023-07-02T04:04:30;0.17;;;0.17;;
24843;SDS011;12921;51.392;12.240;2023-07-02T04:06:56;0.10;;;0.10;;
24843;SDS011;12921;51.392;12.240;2023-07-02T04:09:22;0.60;;;0.60;;
24843;SDS011;12921;51.392;12.240;2023-07-02T04:11:48;1.05;;;0.45;;
24843;SDS011;12921;51.392;12.240;2023-07-02T04:14:14;0.60;;;0.60;;
24843;SDS011;12921;51.392;12.240;2023-07-02T04:16:41;0.75;;;0.75;;
24843;SDS011;12921;51.392;12.240;2023-07-02T04:19:07;0.20;;;0.13;;
24843;SDS011;12921;51.392;12.240;2023-07-02T04:21:33;0.30;;;0.30;;
24843;SDS011;12921;51.392;12.240;2023-07-02T04:23:59;0.10;;;0.10;;
24843;SDS011;12921;51.392;12.240;2023-07-02T04:26:25;0.10;;;0.10;;
24843;SDS011;12921;51.392;12.240;2023-07-02T04:28:52;0.20;;;0.20;;
24843;SDS011;12921;51.392;12.240;2023-07-02T04:31:18;0.10;;;0.10;;
24843;SDS011;12921;51.392;12.240;2023-07-02T04:33:44;0.10;;;0.10;;
24843;SDS011;12921;51.392;12.240;2023-07-02T04:36:11;0.10;;;0.10;;
24843;SDS011;12921;51.392;12.240;2023-07-02T04:38:37;0.10;;;0.10;;
24843;SDS011;12921;51.392;12.240;2023-07-02T04:41:04;0.13;;;0.13;;
24843;SDS011;12921;51.392;12.240;2023-07-02T04:43:31;0.20;;;0.20;;
24843;SDS011;12921;51.392;12.240;2023-07-02T04:45:57;0.50;;;0.50;;
24843;SDS011;12921;51.392;12.240;2023-07-02T04:48:23;0.10;;;0.10;;
24843;SDS011;12921;51.392;12.240;2023-07-02T04:50:50;0.30;;;0.30;;
24843;SDS011;12921;51.392;12.240;2023-07-02T04:53:16;0.10;;;0.10;;
24843;SDS011;12921;51.392;12.240;2023-07-02T04:55:42;1.50;;;1.40;;
24843;SDS011;12921;51.392;12.240;2023-07-02T04:58:09;0.10;;;0.10;;
24843;SDS011;12921;51.392;12.240;2023-07-02T05:00:35;0.30;;;0.30;;
24843;SDS011;12921;51.392;12.240;2023-07-02T05:03:01;0.13;;;0.13;;
24843;SDS011;12921;51.392;12.240;2023-07-02T05:05:27;0.60;;;0.60;;
24843;SDS011;12921;51.392;12.240;2023-07-02T05:07:54;0.20;;;0.20;;
24843;SDS011;12921;51.392;12.240;2023-07-02T05:10:20;0.10;;;0.10;;
24843;SDS011;12921;51.392;12.240;2023-07-02T05:12:46;0.80;;;0.80;;
24843;SDS011;12921;51.392;12.240;2023-07-02T05:15:12;0.65;;;0.65;;
24843;SDS011;12921;51.392;12.240;2023-07-02T05:17:38;0.52;;;0.52;;
24843;SDS011;12921;51.392;12.240;2023-07-02T05:20:04;1.67;;;1.58;;
24843;SDS011;12921;51.392;12.240;2023-07-02T05:22:30;0.35;;;0.35;;
24843;SDS011;12921;51.392;12.240;2023-07-02T05:24:56;0.90;;;0.90;;
24843;SDS011;12921;51.392;12.240;2023-07-02T05:27:22;0.52;;;0.52;;
24843;SDS011;12921;51.392;12.240;2023-07-02T05:29:48;1.38;;;1.27;;
24843;SDS011;12921;51.392;12.240;2023-07-02T05:32:14;0.75;;;0.75;;
24843;SDS011;12921;51.392;12.240;2023-07-02T05:34:40;0.40;;;0.38;;
24843;SDS011;12921;51.392;12.240;2023-07-02T05:37:06;0.10;;;0.10;;
24843;SDS011;12921;51.392;12.240;2023-07-02T05:39:35;1.15;;;1.05;;
24843;SDS011;12921;51.392;12.240;2023-07-02T05:42:01;1.13;;;1.02;;
24843;SDS011;12921;51.392;12.240;2023-07-02T05:44:27;0.20;;;0.20;;
24843;SDS011;12921;51.392;12.240;2023-07-02T05:46:53;0.55;;;0.55;;
24843;SDS011;12921;51.392;12.240;2023-07-02T05:49:19;1.63;;;0.55;;
24843;SDS011;12921;51.392;12.240;2023-07-02T05:51:45;2.40;;;1.92;;
24843;SDS011;12921;51.392;12.240;2023-07-02T05:54:11;0.88;;;0.88;;
24843;SDS011;12921;51.392;12.240;2023-07-02T05:56:37;2.83;;;1.42;;
24843;SDS011;12921;51.392;12.240;2023-07-02T05:59:03;1.70;;;1.60;;
24843;SDS011;12921;51.392;12.240;2023-07-02T06:01:29;0.65;;;0.65;;
24843;SDS011;12921;51.392;12.240;2023-07-02T06:03:55;0.98;;;0.98;;
24843;SDS011;12921;51.392;12.240;2023-07-02T06:06:22;2.38;;;1.65;;
24843;SDS011;12921;51.392;12.240;2023-07-02T06:08:49;1.55;;;1.08;;
24843;SDS011;12921;51.392;12.240;2023-07-02T06:11:15;0.20;;;0.20;;
24843;SDS011;12921;51.392;12.240;2023-07-02T06:13:41;2.88;;;2.63;;
24843;SDS011;12921;51.392;12.240;2023-07-02T06:16:07;0.98;;;0.98;;
24843;SDS011;12921;51.392;12.240;2023-07-02T06:18:33;1.50;;;1.40;;
24843;SDS011;12921;51.392;12.240;2023-07-02T06:20:59;0.60;;;0.60;;
24843;SDS011;12921;51.392;12.240;2023-07-02T06:23:25;4.47;;;1.35;;
24843;SDS011;12921;51.392;12.240;2023-07-02T06:25:51;6.43;;;0.90;;
24843;SDS011;12921;51.392;12.240;2023-07-02T06:28:23;0.50;;;0.50;;
24843;SDS011;12921;51.392;12.240;2023-07-02T06:30:49;1.15;;;1.08;;
24843;SDS011;12921;51.392;12.240;2023-07-02T06:33:15;1.15;;;1.15;;
24843;SDS011;12921;51.392;12.240;2023-07-02T06:35:41;1.48;;;1.25;;
24843;SDS011;12921;51.392;12.240;2023-07-02T06:38:07;1.52;;;1.42;;
24843;SDS011;12921;51.392;12.240;2023-07-02T06:40:33;3.50;;;1.00;;
24843;SDS011;12921;51.392;12.240;2023-07-02T06:42:59;0.38;;;0.38;;
24843;SDS011;12921;51.392;12.240;2023-07-02T06:45:25;1.77;;;1.67;;
24843;SDS011;12921;51.392;12.240;2023-07-02T06:47:51;0.75;;;0.75;;
24843;SDS011;12921;51.392;12.240;2023-07-02T06:50:17;0.85;;;0.85;;
24843;SDS011;12921;51.392;12.240;2023-07-02T06:52:43;0.80;;;0.80;;
24843;SDS011;12921;51.392;12.240;2023-07-02T06:55:09;0.57;;;0.57;;
24843;SDS011;12921;51.392;12.240;2023-07-02T06:57:41;0.93;;;0.93;;
24843;SDS011;12921;51.392;12.240;2023-07-02T07:00:08;0.77;;;0.77;;
24843;SDS011;12921;51.392;12.240;2023-07-02T07:02:34;1.08;;;1.05;;
24843;SDS011;12921;51.392;12.240;2023-07-02T07:05:00;0.38;;;0.38;;
24843;SDS011;12921;51.392;12.240;2023-07-02T07:07:26;0.80;;;0.80;;
24843;SDS011;12921;51.392;12.240;2023-07-02T07:09:52;5.28;;;1.90;;
24843;SDS011;12921;51.392;12.240;2023-07-02T07:12:18;0.60;;;0.60;;
24843;SDS011;12921;51.392;12.240;2023-07-02T07:14:44;0.32;;;0.20;;
24843;SDS011;12921;51.392;12.240;2023-07-02T07:17:11;0.77;;;0.77;;
24843;SDS011;12921;51.392;12.240;2023-07-02T07:19:37;0.85;;;0.70;;
24843;SDS011;12921;51.392;12.240;2023-07-02T07:22:03;0.20;;;0.20;;
24843;SDS011;12921;51.392;12.240;2023-07-02T07:24:29;0.30;;;0.30;;
24843;SDS011;12921;51.392;12.240;2023-07-02T07:26:57;1.55;;;0.85;;
24843;SDS011;12921;51.392;12.240;2023-07-02T07:29:23;1.48;;;1.02;;
24843;SDS011;12921;51.392;12.240;2023-07-02T07:31:49;0.70;;;0.70;;
24843;SDS011;12921;51.392;12.240;2023-07-02T07:34:15;0.45;;;0.45;;
24843;SDS011;12921;51.392;12.240;2023-07-02T07:36:41;0.80;;;0.80;;
24843;SDS011;12921;51.392;12.240;2023-07-02T07:39:07;0.13;;;0.13;;
24843;SDS011;12921;51.392;12.240;2023-07-02T07:41:33;0.20;;;0.20;;
24843;SDS011;12921;51.392;12.240;2023-07-02T07:43:59;0.68;;;0.68;;
24843;SDS011;12921;51.392;12.240;2023-07-02T07:46:26;0.52;;;0.52;;
24843;SDS011;12921;51.392;12.240;2023-07-02T07:48:52;0.10;;;0.10;;
24843;SDS011;12921;51.392;12.240;2023-07-02T07:51:18;0.10;;;0.10;;
24843;SDS011;12921;51.392;12.240;2023-07-02T07:53:44;1.17;;;0.68;;
24843;SDS011;12921;51.392;12.240;2023-07-02T07:56:10;1.10;;;0.95;;
24843;SDS011;12921;51.392;12.240;2023-07-02T07:58:36;0.63;;;0.63;;
24843;SDS011;12921;51.392;12.240;2023-07-02T08:01:02;0.60;;;0.60;;
24843;SDS011;12921;51.392;12.240;2023-07-02T08:03:28;2.80;;;0.88;;
24843;SDS011;12921;51.392;12.240;2023-07-02T08:05:54;5.00;;;1.05;;
24843;SDS011;12921;51.392;12.240;2023-07-02T08:08:20;0.20;;;0.20;;
24843;SDS011;12921;51.392;12.240;2023-07-02T08:10:46;2.05;;;1.00;;
24843;SDS011;12921;51.392;12.240;2023-07-02T08:13:14;1.40;;;1.30;;
24843;SDS011;12921;51.392;12.240;2023-07-02T08:15:39;1.45;;;0.85;;
24843;SDS011;12921;51.392;12.240;2023-07-02T08:18:05;0.40;;;0.40;;
24843;SDS011;12921;51.392;12.240;2023-07-02T08:20:32;0.20;;;0.20;;
24843;SDS011;12921;51.392;12.240;2023-07-02T08:22:58;2.13;;;1.42;;
24843;SDS011;12921;51.392;12.240;2023-07-02T08:25:24;0.95;;;0.95;;
24843;SDS011;12921;51.392;12.240;2023-07-02T08:27:52;0.57;;;0.57;;
24843;SDS011;12921;51.392;12.240;2023-07-02T08:30:18;6.57;;;0.77;;
24843;SDS011;12921;51.392;12.240;2023-07-02T08:32:45;0.30;;;0.30;;
24843;SDS011;12921;51.392;12.240;2023-07-02T08:35:11;1.13;;;1.02;;
24843;SDS011;12921;51.392;12.240;2023-07-02T08:37:37;1.60;;;1.45;;
24843;SDS011;12921;51.392;12.240;2023-07-02T08:40:03;0.98;;;0.98;;
24843;SDS011;12921;51.392;12.240;2023-07-02T08:42:31;0.82;;;0.82;;
24843;SDS011;12921;51.392;12.240;2023-07-02T08:44:57;0.30;;;0.30;;
24843;SDS011;12921;51.392;12.240;2023-07-02T08:47:25;0.43;;;0.35;;
24843;SDS011;12921;51.392;12.240;2023-07-02T08:49:51;0.80;;;0.80;;
24843;SDS011;12921;51.392;12.240;2023-07-02T08:52:17;0.60;;;0.60;;
24843;SDS011;12921;51.392;12.240;2023-07-02T08:54:43;0.50;;;0.50;;
24843;SDS011;12921;51.392;12.240;2023-07-02T08:57:09;0.63;;;0.63;;
24843;SDS011;12921;51.392;12.240;2023-07-02T08:59:35;0.93;;;0.85;;
24843;SDS011;12921;51.392;12.240;2023-07-02T09:02:01;4.90;;;1.05;;
24843;SDS011;12921;51.392;12.240;2023-07-02T09:04:27;1.08;;;1.00;;
24843;SDS011;12921;51.392;12.240;2023-07-02T09:07:03;0.77;;;0.77;;
24843;SDS011;12921;51.392;12.240;2023-07-02T09:09:32;0.35;;;0.35;;
24843;SDS011;12921;51.392;12.240;2023-07-02T09:11:58;1.35;;;0.93;;
24843;SDS011;12921;51.392;12.240;2023-07-02T09:17:00;1.27;;;0.73;;
24843;SDS011;12921;51.392;12.240;2023-07-02T09:21:52;1.50;;;1.00;;
24843;SDS011;12921;51.392;12.240;2023-07-02T09:24:23;1.38;;;0.98;;
24843;SDS011;12921;51.392;12.240;2023-07-02T09:26:52;0.80;;;0.80;;
24843;SDS011;12921;51.392;12.240;2023-07-02T09:29:18;1.45;;;1.25;;
24843;SDS011;12921;51.392;12.240;2023-07-02T09:31:48;0.90;;;0.90;;
24843;SDS011;12921;51.392;12.240;2023-07-02T09:34:14;0.57;;;0.50;;
24843;SDS011;12921;51.392;12.240;2023-07-02T09:36:40;0.60;;;0.60;;
24843;SDS011;12921;51.392;12.240;2023-07-02T09:39:52;0.70;;;0.70;;
24843;SDS011;12921;51.392;12.240;2023-07-02T09:41:54;0.65;;;0.65;;
24843;SDS011;12921;51.392;12.240;2023-07-02T09:44:21;1.63;;;1.30;;
24843;SDS011;12921;51.392;12.240;2023-07-02T09:46:53;1.90;;;1.38;;
24843;SDS011;12921;51.392;12.240;2023-07-02T09:49:21;0.65;;;0.50;;
24843;SDS011;12921;51.392;12.240;2023-07-02T09:51:48;2.75;;;1.80;;
24843;SDS011;12921;51.392;12.240;2023-07-02T09:54:14;1.48;;;1.15;;
24843;SDS011;12921;51.392;12.240;2023-07-02T09:56:41;2.78;;;1.73;;
24843;SDS011;12921;51.392;12.240;2023-07-02T09:59:09;0.50;;;0.50;;
24843;SDS011;12921;51.392;12.240;2023-07-02T10:01:35;2.78;;;1.55;;
24843;SDS011;12921;51.392;12.240;2023-07-02T10:04:14;1.15;;;1.15;;
24843;SDS011;12921;51.392;12.240;2023-07-02T10:06:46;1.40;;;1.30;;
24843;SDS011;12921;51.392;12.240;2023-07-02T10:09:12;1.50;;;0.82;;
24843;SDS011;12921;51.392;12.240;2023-07-02T10:11:38;1.30;;;1.20;;
24843;SDS011;12921;51.392;12.240;2023-07-02T10:14:04;0.10;;;0.10;;
24843;SDS011;12921;51.392;12.240;2023-07-02T10:16:30;0.47;;;0.47;;
24843;SDS011;12921;51.392;12.240;2023-07-02T10:19:12;1.55;;;0.98;;
24843;SDS011;12921;51.392;12.240;2023-07-02T10:21:38;2.47;;;0.65;;
24843;SDS011;12921;51.392;12.240;2023-07-02T10:24:11;0.85;;;0.82;;
24843;SDS011;12921;51.392;12.240;2023-07-02T10:26:37;0.73;;;0.73;;
24843;SDS011;12921;51.392;12.240;2023-07-02T10:29:04;1.33;;;1.23;;
24843;SDS011;12921;51.392;12.240;2023-07-02T10:31:29;0.73;;;0.73;;
24843;SDS011;12921;51.392;12.240;2023-07-02T10:33:55;3.28;;;1.75;;
24843;SDS011;12921;51.392;12.240;2023-07-02T10:36:22;1.77;;;1.67;;
24843;SDS011;12921;51.392;12.240;2023-07-02T10:38:49;1.42;;;1.33;;
24843;SDS011;12921;51.392;12.240;2023-07-02T10:41:25;0.60;;;0.60;;
24843;SDS011;12921;51.392;12.240;2023-07-02T10:43:51;2.40;;;1.92;;
24843;SDS011;12921;51.392;12.240;2023-07-02T10:46:20;1.48;;;1.23;;
24843;SDS011;12921;51.392;12.240;2023-07-02T10:48:56;2.75;;;2.30;;
24843;SDS011;12921;51.392;12.240;2023-07-02T10:51:22;4.25;;;2.53;;
24843;SDS011;12921;51.392;12.240;2023-07-02T10:53:59;3.72;;;2.92;;
24843;SDS011;12921;51.392;12.240;2023-07-02T10:56:28;3.55;;;2.53;;
24843;SDS011;12921;51.392;12.240;2023-07-02T10:58:54;2.97;;;1.95;;
24843;SDS011;12921;51.392;12.240;2023-07-02T11:01:23;1.30;;;1.17;;
24843;SDS011;12921;51.392;12.240;2023-07-02T11:03:56;5.88;;;4.20;;
24843;SDS011;12921;51.392;12.240;2023-07-02T11:06:23;2.38;;;1.88;;
24843;SDS011;12921;51.392;12.240;2023-07-02T11:08:49;3.00;;;1.55;;
24843;SDS011;12921;51.392;12.240;2023-07-02T11:11:15;4.22;;;2.70;;
24843;SDS011;12921;51.392;12.240;2023-07-02T11:13:45;2.47;;;1.70;;
24843;SDS011;12921;51.392;12.240;2023-07-02T11:16:24;8.38;;;2.30;;
24843;SDS011;12921;51.392;12.240;2023-07-02T11:18:54;2.42;;;2.08;;
24843;SDS011;12921;51.392;12.240;2023-07-02T11:21:20;2.92;;;1.83;;
24843;SDS011;12921;51.392;12.240;2023-07-02T11:23:46;3.38;;;1.88;;
24843;SDS011;12921;51.392;12.240;2023-07-02T11:26:12;3.90;;;2.75;;
24843;SDS011;12921;51.392;12.240;2023-07-02T11:28:47;5.40;;;3.63;;
24843;SDS011;12921;51.392;12.240;2023-07-02T11:33:39;5.88;;;3.97;;
24843;SDS011;12921;51.392;12.240;2023-07-02T11:36:06;2.85;;;1.98;;
24843;SDS011;12921;51.392;12.240;2023-07-02T11:38:33;4.43;;;2.90;;
24843;SDS011;12921;51.392;12.240;2023-07-02T11:41:02;1.85;;;1.73;;
24843;SDS011;12921;51.392;12.240;2023-07-02T11:43:28;2.97;;;2.33;;
24843;SDS011;12921;51.392;12.240;2023-07-02T11:45:54;7.22;;;2.90;;
24843;SDS011;12921;51.392;12.240;2023-07-02T11:48:20;4.63;;;2.33;;
24843;SDS011;12921;51.392;12.240;2023-07-02T11:50:46;2.42;;;1.85;;
24843;SDS011;12921;51.392;12.240;2023-07-02T11:53:12;2.88;;;2.10;;
24843;SDS011;12921;51.392;12.240;2023-07-02T11:55:38;2.45;;;1.65;;
24843;SDS011;12921;51.392;12.240;2023-07-02T11:58:04;5.60;;;3.38;;
24843;SDS011;12921;51.392;12.240;2023-07-02T12:00:30;4.05;;;2.97;;
24843;SDS011;12921;51.392;12.240;2023-07-02T12:02:56;0.85;;;0.82;;
24843;SDS011;12921;51.392;12.240;2023-07-02T12:05:22;4.00;;;2.40;;
24843;SDS011;12921;51.392;12.240;2023-07-02T12:07:48;0.95;;;0.88;;
24843;SDS011;12921;51.392;12.240;2023-07-02T12:10:14;1.45;;;1.35;;
24843;SDS011;12921;51.392;12.240;2023-07-02T12:12:40;1.73;;;1.38;;
24843;SDS011;12921;51.392;12.240;2023-07-02T12:15:06;9.27;;;2.60;;
24843;SDS011;12921;51.392;12.240;2023-07-02T12:17:35;5.10;;;2.10;;
24843;SDS011;12921;51.392;12.240;2023-07-02T12:20:01;1.90;;;1.17;;
24843;SDS011;12921;51.392;12.240;2023-07-02T12:22:28;7.30;;;2.78;;
24843;SDS011;12921;51.392;12.240;2023-07-02T12:24:54;5.75;;;2.78;;
24843;SDS011;12921;51.392;12.240;2023-07-02T12:27:22;5.18;;;3.38;;
24843;SDS011;12921;51.392;12.240;2023-07-02T12:29:50;6.38;;;2.88;;
24843;SDS011;12921;51.392;12.240;2023-07-02T12:32:16;7.55;;;3.95;;
24843;SDS011;12921;51.392;12.240;2023-07-02T12:34:42;3.20;;;1.98;;
24843;SDS011;12921;51.392;12.240;2023-07-02T12:37:08;1.85;;;1.75;;
24843;SDS011;12921;51.392;12.240;2023-07-02T12:39:34;5.68;;;2.08;;
24843;SDS011;12921;51.392;12.240;2023-07-02T12:42:00;7.80;;;3.42;;
24843;SDS011;12921;51.392;12.240;2023-07-02T12:44:26;2.30;;;1.63;;
24843;SDS011;12921;51.392;12.240;2023-07-02T12:46:52;3.90;;;1.48;;
24843;SDS011;12921;51.392;12.240;2023-07-02T12:49:18;9.15;;;3.38;;
24843;SDS011;12921;51.392;12.240;2023-07-02T12:51:45;6.10;;;2.97;;
24843;SDS011;12921;51.392;12.240;2023-07-02T12:54:12;0.55;;;0.55;;
24843;SDS011;12921;51.392;12.240;2023-07-02T12:56:38;2.75;;;2.05;;
24843;SDS011;12921;51.392;12.240;2023-07-02T12:59:04;6.97;;;2.90;;
24843;SDS011;12921;51.392;12.240;2023-07-02T13:01:30;0.88;;;0.80;;
24843;SDS011;12921;51.392;12.240;2023-07-02T13:03:56;0.40;;;0.40;;
24843;SDS011;12921;51.392;12.240;2023-07-02T13:06:22;2.92;;;1.30;;
24843;SDS011;12921;51.392;12.240;2023-07-02T13:08:48;1.13;;;1.02;;
24843;SDS011;12921;51.392;12.240;2023-07-02T13:11:14;4.97;;;3.45;;
24843;SDS011;12921;51.392;12.240;2023-07-02T13:13:40;4.00;;;1.40;;
24843;SDS011;12921;51.392;12.240;2023-07-02T13:16:06;8.57;;;3.47;;
24843;SDS011;12921;51.392;12.240;2023-07-02T13:18:33;3.10;;;2.38;;
24843;SDS011;12921;51.392;12.240;2023-07-02T13:20:59;8.77;;;3.70;;
24843;SDS011;12921;51.392;12.240;2023-07-02T13:23:25;5.80;;;3.60;;
24843;SDS011;12921;51.392;12.240;2023-07-02T13:25:51;7.03;;;2.83;;
24843;SDS011;12921;51.392;12.240;2023-07-02T13:28:17;1.95;;;1.42;;
24843;SDS011;12921;51.392;12.240;2023-07-02T13:30:46;0.82;;;0.70;;
24843;SDS011;12921;51.392;12.240;2023-07-02T13:33:12;0.45;;;0.45;;
24843;SDS011;12921;51.392;12.240;2023-07-02T13:35:38;1.48;;;0.88;;
24843;SDS011;12921;51.392;12.240;2023-07-02T13:38:04;5.75;;;3.05;;
24843;SDS011;12921;51.392;12.240;2023-07-02T13:40:30;4.40;;;3.10;;
24843;SDS011;12921;51.392;12.240;2023-07-02T13:42:56;6.00;;;3.60;;
24843;SDS011;12921;51.392;12.240;2023-07-02T13:45:22;3.55;;;2.40;;
24843;SDS011;12921;51.392;12.240;2023-07-02T13:47:48;3.83;;;2.83;;
24843;SDS011;12921;51.392;12.240;2023-07-02T13:50:14;2.72;;;1.55;;
24843;SDS011;12921;51.392;12.240;2023-07-02T13:52:40;1.90;;;1.80;;
24843;SDS011;12921;51.392;12.240;2023-07-02T13:55:06;7.07;;;2.38;;
24843;SDS011;12921;51.392;12.240;2023-07-02T13:57:32;1.75;;;1.65;;
24843;SDS011;12921;51.392;12.240;2023-07-02T13:59:58;8.02;;;3.60;;
24843;SDS011;12921;51.392;12.240;2023-07-02T14:02:24;4.70;;;2.55;;
24843;SDS011;12921;51.392;12.240;2023-07-02T14:04:50;9.90;;;4.13;;
24843;SDS011;12921;51.392;12.240;2023-07-02T14:07:16;4.90;;;3.05;;
24843;SDS011;12921;51.392;12.240;2023-07-02T14:09:42;2.67;;;1.27;;
24843;SDS011;12921;51.392;12.240;2023-07-02T14:12:08;5.18;;;2.35;;
24843;SDS011;12921;51.392;12.240;2023-07-02T14:14:34;4.57;;;1.33;;
24843;SDS011;12921;51.392;12.240;2023-07-02T14:17:00;9.00;;;3.20;;
24843;SDS011;12921;51.392;12.240;2023-07-02T14:19:26;4.20;;;2.75;;
24843;SDS011;12921;51.392;12.240;2023-07-02T14:21:52;2.25;;;1.45;;
24843;SDS011;12921;51.392;12.240;2023-07-02T14:24:18;1.92;;;1.08;;
24843;SDS011;12921;51.392;12.240;2023-07-02T14:26:44;1.80;;;1.70;;
24843;SDS011;12921;51.392;12.240;2023-07-02T14:29:10;1.55;;;1.15;;
24843;SDS011;12921;51.392;12.240;2023-07-02T14:31:36;5.57;;;2.53;;
24843;SDS011;12921;51.392;12.240;2023-07-02T14:34:02;10.48;;;3.80;;
24843;SDS011;12921;51.392;12.240;2023-07-02T14:36:28;4.25;;;1.88;;
24843;SDS011;12921;51.392;12.240;2023-07-02T14:38:54;3.05;;;2.22;;